Time;durP1;ratioP1;P1;durP2;ratioP2;P2;SDS_P1;SDS_P2;PMS_P1;PMS_P2;Temp;Humidity;BMP_temperature;BMP_pressure;BME280_temperature;BME280_humidity;BME280_pressure;Samples;Min_cycle;Max_cycle;Signal;HPM_P1;HPM_P2
2021/07/14 00:01:46;;;;;;;4.95;2.95;;;21.70;99.90;;;;;;4936045;29;20186;-67
2021/07/14 00:04:12;;;;;;;3.20;2.83;;;21.70;99.90;;;;;;4937765;29;20196;-69
2021/07/14 00:06:38;;;;;;;3.58;2.90;;;21.70;99.90;;;;;;4936541;28;20211;-70
2021/07/14 00:09:09;;;;;;;2.65;2.45;;;21.80;99.90;;;;;;4935732;29;20304;-72
2021/07/14 00:11:39;;;;;;;3.45;3.15;;;21.70;99.90;;;;;;4938610;29;20198;-68
2021/07/14 00:22:13;;;;;;;3.53;3.15;;;21.50;99.90;;;;;;4942687;29;20200;-67
2021/07/14 00:24:41;;;;;;;3.70;2.90;;;21.50;99.90;;;;;;4942992;28;20550;-69
2021/07/14 00:27:08;;;;;;;3.30;3.00;;;21.50;99.90;;;;;;4938468;28;20183;-68
2021/07/14 00:29:48;;;;;;;3.13;2.83;;;21.50;99.90;;;;;;4937999;29;20572;-67
2021/07/14 00:32:13;;;;;;;3.15;2.85;;;21.50;99.90;;;;;;4951893;28;20216;-71
2021/07/14 00:34:39;;;;;;;3.28;2.97;;;21.50;99.90;;;;;;4941686;29;20193;-70
2021/07/14 00:37:05;;;;;;;3.60;3.17;;;21.40;99.90;;;;;;4939805;29;20203;-67
2021/07/14 00:39:30;;;;;;;3.75;2.92;;;21.40;99.90;;;;;;4943774;29;20296;-70
2021/07/14 00:41:56;;;;;;;3.70;3.40;;;21.30;99.90;;;;;;4941375;29;20670;-68
2021/07/14 00:44:22;;;;;;;3.50;3.20;;;21.30;99.90;;;;;;4936248;28;20230;-70
2021/07/14 00:46:48;;;;;;;8.82;2.95;;;21.30;99.90;;;;;;4942382;29;20177;-71
2021/07/14 00:49:14;;;;;;;3.65;3.28;;;21.30;99.90;;;;;;4940950;29;20210;-67
2021/07/14 00:51:40;;;;;;;3.67;3.38;;;21.20;99.90;;;;;;4938517;28;20186;-71
2021/07/14 00:54:06;;;;;;;3.63;3.33;;;21.20;99.90;;;;;;4940338;29;20912;-70
2021/07/14 00:56:32;;;;;;;3.85;3.38;;;21.20;99.90;;;;;;4942257;28;20182;-71
2021/07/14 00:58:58;;;;;;;3.50;3.13;;;21.30;99.90;;;;;;4942158;28;20213;-71
2021/07/14 01:01:24;;;;;;;5.38;3.40;;;21.10;99.90;;;;;;4942209;28;20182;-67
2021/07/14 01:04:12;;;;;;;3.65;3.30;;;21.10;99.90;;;;;;4941536;28;20665;-70
2021/07/14 01:07:31;;;;;;;4.05;3.30;;;21.00;99.90;;;;;;4937927;29;20232;-69
2021/07/14 01:10:25;;;;;;;3.95;3.42;;;21.00;99.90;;;;;;4900625;29;20223;-71
2021/07/14 01:13:02;;;;;;;3.58;3.20;;;20.90;99.90;;;;;;4936023;29;20198;-70
2021/07/14 01:15:33;;;;;;;3.83;3.42;;;20.80;99.90;;;;;;4936950;29;20189;-67
2021/07/14 01:18:17;;;;;;;4.70;3.72;;;20.80;99.90;;;;;;4945208;29;20193;-70
2021/07/14 01:21:00;;;;;;;3.45;3.15;;;20.90;99.90;;;;;;4939407;29;20301;-70
2021/07/14 01:23:40;;;;;;;3.75;3.17;;;20.80;99.90;;;;;;4942258;29;20186;-69
2021/07/14 01:26:12;;;;;;;4.68;3.97;;;20.80;99.90;;;;;;4935893;28;20642;-68
2021/07/14 01:28:41;;;;;;;4.13;3.72;;;20.70;99.90;;;;;;4940597;29;20194;-68
2021/07/14 01:31:10;;;;;;;4.60;3.50;;;20.70;99.90;;;;;;4938862;29;20207;-68
2021/07/14 01:33:40;;;;;;;4.97;4.10;;;20.70;99.90;;;;;;4940486;29;20182;-69
2021/07/14 01:36:11;;;;;;;4.35;3.63;;;20.70;99.90;;;;;;4938723;29;20225;-71
2021/07/14 01:38:39;;;;;;;4.78;4.15;;;20.70;99.90;;;;;;4939879;29;20198;-70
2021/07/14 01:41:07;;;;;;;4.60;4.15;;;20.70;99.90;;;;;;4938805;29;20802;-71
2021/07/14 01:43:40;;;;;;;5.53;3.92;;;20.70;99.90;;;;;;4937370;29;20197;-70
2021/07/14 01:46:07;;;;;;;4.05;3.65;;;20.80;99.90;;;;;;4938502;28;20642;-70
2021/07/14 01:48:37;;;;;;;5.15;4.38;;;20.70;99.90;;;;;;4937406;29;20735;-68
2021/07/14 01:51:04;;;;;;;6.63;4.07;;;20.70;99.90;;;;;;4934269;29;20209;-71
2021/07/14 01:53:34;;;;;;;5.22;4.18;;;20.60;99.90;;;;;;4936672;28;20178;-67
2021/07/14 01:56:03;;;;;;;5.65;5.05;;;20.70;99.90;;;;;;4936731;29;20217;-71
2021/07/14 01:58:30;;;;;;;4.60;4.20;;;20.50;99.90;;;;;;4934527;29;20276;-68
2021/07/14 02:00:57;;;;;;;5.25;4.72;;;20.50;99.90;;;;;;4937204;29;20194;-67
2021/07/14 02:06:01;;;;;;;5.63;4.30;;;20.30;99.90;;;;;;4939055;29;20185;-70
2021/07/14 02:08:28;;;;;;;4.78;4.10;;;20.30;99.90;;;;;;4937952;29;20177;-68
2021/07/14 02:10:55;;;;;;;4.85;3.95;;;20.20;99.90;;;;;;4938152;28;20237;-70
2021/07/14 02:13:24;;;;;;;4.70;4.30;;;20.20;99.90;;;;;;4945776;29;20666;-69
2021/07/14 02:15:55;;;;;;;5.28;4.10;;;20.20;99.90;;;;;;4939653;29;20241;-68
2021/07/14 02:18:25;;;;;;;4.70;3.97;;;20.30;99.90;;;;;;4939100;29;20257;-71
2021/07/14 02:20:57;;;;;;;6.18;4.88;;;20.40;99.90;;;;;;4938262;29;20208;-69
2021/07/14 02:23:23;;;;;;;6.60;4.28;;;20.30;99.90;;;;;;4939789;28;20199;-69
2021/07/14 02:25:48;;;;;;;4.68;4.22;;;20.30;99.90;;;;;;4934482;29;20178;-69
2021/07/14 02:28:14;;;;;;;4.22;3.83;;;20.30;99.90;;;;;;4937527;29;20190;-71
2021/07/14 02:30:40;;;;;;;7.28;4.70;;;20.30;99.90;;;;;;4936284;28;20209;-69
2021/07/14 02:33:09;;;;;;;5.47;4.95;;;20.40;99.90;;;;;;4938127;29;21170;-67
2021/07/14 02:35:39;;;;;;;6.05;4.93;;;20.40;99.90;;;;;;4939938;29;20184;-69
2021/07/14 02:38:16;;;;;;;5.60;4.72;;;20.50;99.90;;;;;;4937123;29;20257;-69
2021/07/14 02:40:51;;;;;;;5.15;4.68;;;20.50;99.90;;;;;;4939463;28;20689;-67
2021/07/14 02:43:25;;;;;;;7.72;4.57;;;20.50;99.90;;;;;;4938069;29;20700;-67
2021/07/14 02:45:52;;;;;;;6.00;4.63;;;20.40;99.90;;;;;;4938856;28;20272;-71
2021/07/14 02:48:19;;;;;;;5.57;4.95;;;20.30;99.90;;;;;;4937254;29;20186;-70
2021/07/14 02:50:46;;;;;;;6.60;5.05;;;20.20;99.90;;;;;;4936162;29;20618;-66
2021/07/14 02:53:19;;;;;;;5.75;5.25;;;20.20;99.90;;;;;;4940297;29;20597;-68
2021/07/14 02:55:52;;;;;;;5.95;5.35;;;20.10;99.90;;;;;;4937008;29;20185;-69
2021/07/14 02:58:22;;;;;;;6.32;4.85;;;20.10;99.90;;;;;;4938808;28;20217;-69
2021/07/14 03:00:49;;;;;;;5.90;5.30;;;20.10;99.90;;;;;;4945051;29;20268;-71
2021/07/14 03:03:15;;;;;;;5.75;5.00;;;20.10;99.90;;;;;;4939799;28;20190;-70
2021/07/14 03:05:41;;;;;;;6.90;6.18;;;20.10;99.90;;;;;;4934517;29;20187;-70
2021/07/14 03:08:13;;;;;;;6.43;5.63;;;20.10;99.90;;;;;;4939992;29;20205;-71
2021/07/14 03:10:41;;;;;;;7.07;6.10;;;20.20;99.90;;;;;;4938894;29;20712;-71
2021/07/14 03:13:07;;;;;;;7.82;6.60;;;20.20;99.90;;;;;;4935105;29;20243;-70
2021/07/14 03:15:37;;;;;;;6.90;6.18;;;20.30;99.90;;;;;;4934675;29;20178;-68
2021/07/14 03:18:03;;;;;;;9.23;6.85;;;20.40;99.90;;;;;;4936004;29;20316;-68
2021/07/14 03:20:30;;;;;;;9.05;7.13;;;20.30;99.90;;;;;;4935854;28;20623;-71
2021/07/14 03:22:56;;;;;;;8.18;7.05;;;20.40;99.90;;;;;;4935674;29;20183;-70
2021/07/14 03:25:22;;;;;;;9.02;7.80;;;20.40;99.90;;;;;;4940046;29;20248;-70
2021/07/14 03:27:50;;;;;;;7.85;6.65;;;20.40;99.90;;;;;;4935825;28;20192;-66
2021/07/14 03:30:19;;;;;;;9.52;7.95;;;20.40;99.90;;;;;;4937981;29;20210;-69
2021/07/14 03:32:45;;;;;;;9.35;7.30;;;20.40;99.90;;;;;;4936989;29;20334;-67
2021/07/14 03:35:12;;;;;;;11.98;7.68;;;20.40;99.90;;;;;;4934595;29;20198;-69
2021/07/14 03:37:38;;;;;;;7.85;7.05;;;20.40;99.90;;;;;;4934838;29;20665;-70
2021/07/14 03:40:05;;;;;;;9.82;7.43;;;20.30;99.90;;;;;;4927774;29;20220;-69
2021/07/14 03:42:32;;;;;;;9.07;7.50;;;20.30;99.90;;;;;;4937026;29;20205;-67
2021/07/14 03:44:59;;;;;;;7.65;6.85;;;20.30;99.90;;;;;;4934101;29;20696;-70
2021/07/14 03:47:25;;;;;;;9.52;7.85;;;20.40;99.90;;;;;;4931105;29;20182;-69
2021/07/14 03:49:52;;;;;;;11.50;7.22;;;20.40;99.90;;;;;;4932738;28;20660;-67
2021/07/14 03:52:20;;;;;;;12.00;7.72;;;20.50;99.90;;;;;;4935676;29;20325;-68
2021/07/14 03:54:47;;;;;;;8.02;7.10;;;20.50;99.90;;;;;;4945833;29;20189;-67
2021/07/14 03:57:13;;;;;;;11.98;7.65;;;20.50;99.90;;;;;;4937272;28;20190;-68
2021/07/14 03:59:40;;;;;;;8.90;7.85;;;20.60;99.90;;;;;;4937290;28;20241;-69
2021/07/14 04:02:08;;;;;;;9.90;7.93;;;20.50;99.90;;;;;;4941302;28;20185;-67
2021/07/14 04:04:33;;;;;;;10.45;8.18;;;20.50;99.90;;;;;;4933152;29;20650;-67
2021/07/14 04:07:04;;;;;;;9.95;7.75;;;20.60;99.90;;;;;;4932545;29;20241;-70
2021/07/14 04:09:30;;;;;;;8.70;7.80;;;20.60;99.90;;;;;;4934534;29;20213;-68
2021/07/14 04:11:59;;;;;;;9.65;8.65;;;20.60;99.90;;;;;;4936011;28;20225;-68
2021/07/14 04:14:26;;;;;;;12.45;8.77;;;20.60;99.90;;;;;;4936147;29;20190;-66
2021/07/14 04:16:54;;;;;;;13.38;8.20;;;20.70;99.90;;;;;;4931803;29;20713;-68
2021/07/14 04:19:19;;;;;;;11.50;9.23;;;20.70;99.90;;;;;;4933683;29;20486;-68
2021/07/14 04:21:45;;;;;;;12.13;8.52;;;20.80;99.90;;;;;;4936557;29;20193;-67
2021/07/14 04:24:11;;;;;;;10.45;8.43;;;20.80;99.90;;;;;;4940774;28;20189;-68
2021/07/14 04:26:37;;;;;;;10.77;8.68;;;20.90;99.90;;;;;;4936543;29;20179;-69
2021/07/14 04:29:04;;;;;;;11.07;8.85;;;20.90;99.90;;;;;;4934720;28;20221;-69
2021/07/14 04:31:35;;;;;;;10.63;8.65;;;21.00;99.90;;;;;;4935825;29;20664;-69
2021/07/14 04:34:01;;;;;;;13.10;9.15;;;21.00;99.90;;;;;;4943886;29;20220;-69
2021/07/14 04:36:27;;;;;;;12.98;8.93;;;21.10;99.90;;;;;;4934720;29;20281;-66
2021/07/14 04:38:53;;;;;;;11.27;9.18;;;21.10;99.90;;;;;;4934700;28;20279;-69
2021/07/14 04:41:18;;;;;;;11.82;10.05;;;21.20;99.90;;;;;;4939181;29;20228;-70
2021/07/14 04:43:44;;;;;;;11.68;9.52;;;21.20;99.90;;;;;;4935215;29;20200;-69
2021/07/14 04:46:10;;;;;;;12.68;10.02;;;21.20;99.90;;;;;;4933037;29;20190;-69
2021/07/14 04:48:35;;;;;;;14.07;9.85;;;21.30;99.90;;;;;;4930370;29;20189;-67
2021/07/14 04:51:01;;;;;;;13.05;9.23;;;21.40;99.90;;;;;;4931051;29;20667;-68
2021/07/14 04:53:26;;;;;;;13.50;10.45;;;21.40;99.90;;;;;;4942249;28;20197;-69
2021/07/14 04:55:52;;;;;;;14.38;10.25;;;21.50;99.90;;;;;;4935207;28;20193;-69
2021/07/14 04:58:18;;;;;;;13.18;9.52;;;21.50;99.90;;;;;;4939771;28;20698;-68
2021/07/14 05:00:43;;;;;;;14.70;10.93;;;21.50;99.90;;;;;;4934429;28;20222;-67
2021/07/14 05:03:09;;;;;;;14.18;11.43;;;21.50;99.90;;;;;;4937287;29;20189;-68
2021/07/14 05:05:34;;;;;;;14.63;10.70;;;21.60;99.90;;;;;;4934701;28;20222;-69
2021/07/14 05:08:00;;;;;;;14.60;10.52;;;21.50;99.90;;;;;;4940274;29;20685;-68
2021/07/14 05:10:29;;;;;;;13.02;10.45;;;21.50;99.90;;;;;;4945608;28;20213;-67
2021/07/14 05:12:55;;;;;;;13.35;9.73;;;21.60;99.90;;;;;;4945269;28;20182;-68
2021/07/14 05:15:21;;;;;;;13.60;10.35;;;21.50;99.90;;;;;;4940039;29;20194;-69
2021/07/14 05:17:47;;;;;;;12.90;9.80;;;21.50;99.90;;;;;;4933728;28;20318;-69
2021/07/14 05:20:13;;;;;;;12.10;9.65;;;21.40;99.90;;;;;;4940451;29;20300;-68
2021/07/14 05:22:39;;;;;;;15.65;11.15;;;21.40;99.90;;;;;;4938814;28;20177;-67
2021/07/14 05:25:07;;;;;;;14.73;10.98;;;21.40;99.90;;;;;;4933539;29;20664;-68
2021/07/14 05:27:33;;;;;;;13.23;9.93;;;21.30;99.90;;;;;;4928475;29;20308;-66
2021/07/14 05:29:59;;;;;;;13.20;10.43;;;21.30;99.90;;;;;;4951871;28;20241;-71
2021/07/14 05:32:25;;;;;;;14.10;10.50;;;21.40;99.90;;;;;;4934984;29;20277;-69
2021/07/14 05:34:50;;;;;;;14.57;11.18;;;21.50;99.90;;;;;;4933315;29;20217;-68
2021/07/14 05:37:16;;;;;;;15.13;10.57;;;21.60;99.90;;;;;;4934270;28;20194;-68
2021/07/14 05:39:42;;;;;;;13.82;10.48;;;21.70;99.90;;;;;;4932431;28;20221;-66
2021/07/14 05:42:08;;;;;;;12.70;10.07;;;21.70;99.90;;;;;;4929736;29;20489;-67
2021/07/14 05:44:34;;;;;;;13.40;10.30;;;21.80;99.90;;;;;;4935930;28;20194;-66
2021/07/14 05:47:00;;;;;;;13.13;9.85;;;21.90;99.90;;;;;;4933524;29;20513;-69
2021/07/14 05:49:26;;;;;;;12.63;9.95;;;22.00;99.90;;;;;;4928516;28;20241;-67
2021/07/14 05:51:51;;;;;;;13.43;10.38;;;21.90;99.90;;;;;;4931169;29;20190;-68
2021/07/14 05:54:17;;;;;;;13.18;10.55;;;22.00;99.90;;;;;;4931876;28;20182;-69
2021/07/14 05:56:43;;;;;;;14.20;9.90;;;22.00;99.90;;;;;;4934783;28;20197;-68
2021/07/14 05:59:09;;;;;;;13.23;9.75;;;22.10;99.90;;;;;;4934630;28;20247;-69
2021/07/14 06:01:34;;;;;;;12.73;10.25;;;22.10;99.90;;;;;;4933478;29;20181;-68
2021/07/14 06:04:00;;;;;;;13.07;9.88;;;22.00;99.90;;;;;;4938153;28;20536;-68
2021/07/14 06:06:26;;;;;;;13.75;10.07;;;21.80;99.90;;;;;;4939837;29;20200;-67
2021/07/14 06:08:52;;;;;;;11.98;9.25;;;21.80;99.90;;;;;;4936043;28;20638;-68
2021/07/14 06:11:18;;;;;;;12.18;9.85;;;21.70;99.90;;;;;;4930945;29;20191;-69
2021/07/14 06:13:44;;;;;;;9.80;8.05;;;21.70;99.90;;;;;;4932163;29;20214;-67
2021/07/14 06:16:09;;;;;;;9.75;7.47;;;21.60;99.90;;;;;;4933073;29;20277;-67
2021/07/14 06:18:35;;;;;;;10.15;7.28;;;21.60;99.90;;;;;;4935268;28;20184;-69
2021/07/14 06:21:01;;;;;;;8.02;7.13;;;21.50;99.90;;;;;;4930387;29;20269;-69
2021/07/14 06:23:27;;;;;;;8.35;6.90;;;21.40;99.90;;;;;;4936785;29;20196;-67
2021/07/14 06:25:54;;;;;;;8.80;7.05;;;21.40;99.90;;;;;;4931159;28;20186;-69
2021/07/14 06:28:20;;;;;;;9.27;7.28;;;21.30;99.90;;;;;;4932723;29;20179;-68
2021/07/14 06:30:46;;;;;;;9.10;7.43;;;21.30;99.90;;;;;;4933565;28;20208;-67
2021/07/14 06:33:12;;;;;;;9.57;7.60;;;21.20;99.90;;;;;;4936364;29;20194;-68
2021/07/14 06:35:38;;;;;;;10.48;7.68;;;21.10;99.90;;;;;;4928563;29;20280;-67
2021/07/14 06:38:04;;;;;;;8.95;7.43;;;21.10;99.90;;;;;;4931461;29;21123;-68
2021/07/14 06:40:31;;;;;;;10.10;8.25;;;21.10;99.90;;;;;;4927055;29;20657;-67
2021/07/14 06:42:56;;;;;;;9.45;7.20;;;21.00;99.90;;;;;;4925542;29;20205;-68
2021/07/14 06:45:24;;;;;;;9.45;7.03;;;21.10;99.90;;;;;;4929769;29;20657;-68
2021/07/14 06:47:50;;;;;;;8.90;7.25;;;21.10;99.90;;;;;;4933281;28;20192;-67
2021/07/14 06:50:16;;;;;;;10.32;7.63;;;21.10;99.90;;;;;;4925577;29;20244;-68
2021/07/14 06:52:42;;;;;;;8.82;6.45;;;21.20;99.90;;;;;;4928090;29;20222;-67
2021/07/14 06:55:10;;;;;;;9.73;6.63;;;21.30;99.90;;;;;;4933164;29;20563;-70
2021/07/14 06:57:36;;;;;;;8.73;6.93;;;21.40;99.90;;;;;;4925826;29;20249;-67
2021/07/14 07:00:05;;;;;;;9.57;7.07;;;21.40;99.90;;;;;;4926490;29;20218;-66
2021/07/14 07:02:30;;;;;;;7.97;6.75;;;21.30;99.90;;;;;;4930989;29;20562;-67
2021/07/14 07:04:56;;;;;;;9.35;6.05;;;21.50;99.90;;;;;;4936256;29;20288;-68
2021/07/14 07:07:22;;;;;;;7.22;6.03;;;21.60;99.90;;;;;;4928372;29;20638;-66
2021/07/14 07:09:47;;;;;;;7.53;5.80;;;21.60;99.90;;;;;;4926543;29;20207;-66
2021/07/14 07:12:13;;;;;;;9.60;6.35;;;21.60;99.90;;;;;;4932191;29;20213;-66
2021/07/14 07:14:40;;;;;;;9.95;7.13;;;21.60;99.90;;;;;;4928921;29;21086;-66
2021/07/14 07:17:06;;;;;;;8.35;6.55;;;21.50;99.90;;;;;;4934478;29;20732;-67
2021/07/14 07:19:32;;;;;;;9.45;6.65;;;21.40;99.90;;;;;;4926416;29;20288;-67
2021/07/14 07:21:58;;;;;;;10.75;5.90;;;21.40;99.90;;;;;;4933869;29;20186;-66
2021/07/14 07:24:23;;;;;;;8.40;6.60;;;21.30;99.90;;;;;;4931322;29;20312;-66
2021/07/14 07:26:49;;;;;;;7.57;6.35;;;21.40;99.90;;;;;;4930835;29;20245;-66
2021/07/14 07:29:15;;;;;;;10.80;6.07;;;21.40;99.90;;;;;;4933504;29;20217;-66
2021/07/14 07:31:41;;;;;;;8.20;5.95;;;21.40;99.90;;;;;;4930384;29;21196;-68
2021/07/14 07:34:07;;;;;;;7.38;5.63;;;21.50;99.90;;;;;;4935895;29;20190;-66
2021/07/14 07:36:32;;;;;;;10.48;6.47;;;21.50;99.90;;;;;;4934713;29;20307;-67
2021/07/14 07:38:59;;;;;;;9.05;6.40;;;21.60;99.90;;;;;;4944964;29;20296;-66
2021/07/14 07:41:26;;;;;;;8.40;5.70;;;21.60;99.90;;;;;;4936369;29;20618;-67
2021/07/14 07:43:52;;;;;;;11.70;6.78;;;21.60;99.90;;;;;;4930115;29;20198;-67
2021/07/14 07:46:18;;;;;;;9.05;6.45;;;21.60;99.90;;;;;;4930035;29;20187;-67
2021/07/14 07:48:44;;;;;;;7.78;6.55;;;21.60;99.90;;;;;;4930009;29;20175;-67
2021/07/14 07:51:10;;;;;;;8.48;6.65;;;21.50;99.90;;;;;;4932817;29;20611;-66
2021/07/14 07:53:37;;;;;;;9.55;6.43;;;21.50;99.90;;;;;;4939010;28;20186;-68
2021/07/14 07:56:03;;;;;;;9.18;6.90;;;21.60;99.90;;;;;;4939169;29;20186;-68
2021/07/14 07:58:28;;;;;;;10.05;7.10;;;21.60;99.90;;;;;;4937491;28;20182;-69
2021/07/14 08:00:54;;;;;;;9.60;6.40;;;21.50;99.90;;;;;;4940468;29;20296;-67
2021/07/14 08:03:20;;;;;;;8.90;5.90;;;21.50;99.90;;;;;;4938802;29;20186;-68
2021/07/14 08:05:46;;;;;;;8.38;5.93;;;21.50;99.90;;;;;;4938574;29;20186;-67
2021/07/14 08:08:12;;;;;;;9.38;6.72;;;21.50;99.90;;;;;;4935379;28;20190;-68
2021/07/14 08:10:38;;;;;;;9.65;6.07;;;21.50;99.90;;;;;;4942337;28;20209;-67
2021/07/14 08:13:07;;;;;;;7.28;5.63;;;21.50;99.90;;;;;;4935376;29;20662;-66
2021/07/14 08:15:33;;;;;;;7.07;5.07;;;21.60;99.90;;;;;;4937898;29;20186;-68
2021/07/14 08:17:59;;;;;;;7.55;5.15;;;21.60;99.90;;;;;;4936669;29;20186;-68
2021/07/14 08:20:25;;;;;;;6.68;5.25;;;21.50;99.90;;;;;;4934789;28;20701;-66
2021/07/14 08:22:51;;;;;;;7.07;4.88;;;21.40;99.90;;;;;;4940001;29;20269;-67
2021/07/14 08:25:17;;;;;;;5.60;4.32;;;21.40;99.90;;;;;;4941936;29;20182;-67
2021/07/14 08:27:43;;;;;;;5.60;4.43;;;21.30;99.90;;;;;;4939907;29;20716;-66
2021/07/14 08:30:11;;;;;;;6.13;4.38;;;21.30;99.90;;;;;;4940327;29;20214;-66
2021/07/14 08:32:36;;;;;;;4.97;4.20;;;21.30;99.90;;;;;;4942787;29;20658;-68
2021/07/14 08:35:03;;;;;;;5.78;4.03;;;21.30;99.90;;;;;;4939589;28;20225;-68
2021/07/14 08:37:28;;;;;;;4.95;3.75;;;21.30;99.90;;;;;;4943180;28;20190;-66
2021/07/14 08:39:55;;;;;;;6.78;4.10;;;21.50;99.90;;;;;;4941708;28;20280;-67
2021/07/14 08:42:22;;;;;;;5.32;4.13;;;21.60;99.90;;;;;;4942571;28;20190;-67
2021/07/14 08:44:49;;;;;;;7.03;4.15;;;21.60;99.90;;;;;;4943140;29;20197;-66
2021/07/14 08:47:16;;;;;;;5.35;4.15;;;21.80;99.90;;;;;;4941035;29;20178;-66
2021/07/14 08:49:45;;;;;;;6.03;3.72;;;22.00;99.90;;;;;;4939155;28;20218;-67
2021/07/14 08:52:12;;;;;;;7.57;4.45;;;22.10;99.90;;;;;;4945367;29;20194;-68
2021/07/14 08:54:42;;;;;;;4.85;3.60;;;22.10;99.90;;;;;;4935037;28;20190;-68
2021/07/14 08:57:17;;;;;;;5.40;3.90;;;22.00;99.90;;;;;;4934000;29;20186;-64
2021/07/14 08:59:45;;;;;;;5.55;3.90;;;22.10;99.90;;;;;;4947599;29;20210;-67
2021/07/14 09:02:13;;;;;;;4.60;3.95;;;21.90;99.90;;;;;;4941025;29;20745;-68
2021/07/14 09:04:40;;;;;;;6.68;4.25;;;21.90;99.90;;;;;;4940598;29;20190;-68
2021/07/14 09:07:09;;;;;;;6.10;4.45;;;21.80;99.90;;;;;;4941673;29;20182;-67
2021/07/14 09:09:37;;;;;;;5.93;4.25;;;21.70;99.90;;;;;;4938489;29;20198;-67
2021/07/14 09:12:07;;;;;;;5.93;3.97;;;21.60;99.90;;;;;;4938349;29;20189;-64
2021/07/14 09:14:36;;;;;;;9.32;5.13;;;21.50;99.90;;;;;;4940551;29;20189;-66
2021/07/14 09:17:24;;;;;;;5.85;4.70;;;21.50;99.90;;;;;;4930914;29;20190;-66
2021/07/14 09:19:52;;;;;;;6.18;4.32;;;21.40;99.90;;;;;;4936291;29;20209;-67
2021/07/14 09:22:21;;;;;;;5.65;4.57;;;21.30;99.90;;;;;;4939613;28;20194;-66
2021/07/14 09:24:48;;;;;;;6.15;4.25;;;21.40;99.90;;;;;;4937226;29;20262;-68
2021/07/14 09:27:27;;;;;;;6.22;4.05;;;21.40;99.90;;;;;;4936261;29;20314;-68
2021/07/14 09:30:13;;;;;;;5.07;3.97;;;21.40;99.90;;;;;;4935666;28;20281;-67
2021/07/14 09:32:53;;;;;;;6.65;4.45;;;21.30;99.90;;;;;;4938229;29;20196;-67
2021/07/14 09:35:30;;;;;;;8.13;4.15;;;21.30;99.90;;;;;;4940608;28;20223;-66
2021/07/14 09:37:57;;;;;;;4.80;3.67;;;21.30;99.90;;;;;;4943038;29;20182;-66
2021/07/14 09:40:23;;;;;;;6.43;4.35;;;21.20;99.90;;;;;;4937477;28;20225;-67
2021/07/14 09:43:03;;;;;;;6.70;4.18;;;21.30;99.90;;;;;;4942538;29;20189;-67
2021/07/14 09:45:48;;;;;;;5.90;4.53;;;21.20;99.90;;;;;;4934533;29;20201;-66
2021/07/14 09:48:20;;;;;;;5.78;3.92;;;21.40;99.90;;;;;;4935186;29;20186;-69
2021/07/14 09:51:01;;;;;;;3.45;3.15;;;21.30;99.90;;;;;;4927791;29;20198;-67
2021/07/14 09:53:32;;;;;;;4.68;3.72;;;21.50;99.90;;;;;;4935542;29;20285;-66
2021/07/14 09:56:03;;;;;;;4.53;3.67;;;21.60;99.90;;;;;;4935294;28;20186;-68
2021/07/14 09:58:31;;;;;;;4.50;3.10;;;21.70;99.90;;;;;;4950746;28;20288;-67
2021/07/14 10:00:59;;;;;;;3.40;2.80;;;21.80;99.90;;;;;;4930810;29;20701;-68
2021/07/14 10:03:33;;;;;;;4.47;2.80;;;21.90;99.90;;;;;;4932047;29;20560;-66
2021/07/14 10:06:21;;;;;;;4.05;2.80;;;22.00;99.90;;;;;;4931413;29;20185;-68
2021/07/14 10:08:48;;;;;;;3.60;2.63;;;22.10;99.90;;;;;;4933556;29;20173;-67
2021/07/14 10:11:22;;;;;;;4.80;3.03;;;22.10;99.90;;;;;;4934420;29;20181;-68
2021/07/14 10:13:58;;;;;;;4.60;2.60;;;22.20;99.90;;;;;;4929131;29;20177;-67
2021/07/14 10:16:26;;;;;;;3.90;2.20;;;22.30;99.90;;;;;;4933788;29;20193;-67
2021/07/14 10:18:56;;;;;;;3.83;2.20;;;22.40;99.90;;;;;;4935180;28;20182;-66
2021/07/14 10:21:22;;;;;;;3.67;2.00;;;22.40;99.90;;;;;;4954001;28;20178;-66
2021/07/14 10:23:49;;;;;;;3.03;2.33;;;22.30;99.90;;;;;;4947527;28;20186;-67
2021/07/14 10:26:15;;;;;;;3.03;2.33;;;22.30;99.90;;;;;;4931766;29;20196;-68
2021/07/14 10:28:43;;;;;;;3.33;2.83;;;22.40;99.90;;;;;;4933096;29;20188;-68
2021/07/14 10:31:09;;;;;;;2.53;2.00;;;22.50;99.90;;;;;;4933094;29;20292;-68
2021/07/14 10:33:37;;;;;;;2.58;1.90;;;22.60;99.90;;;;;;4934477;29;20269;-67
2021/07/14 10:36:07;;;;;;;3.17;2.25;;;22.80;99.90;;;;;;4933005;29;20198;-66
2021/07/14 10:38:33;;;;;;;3.33;2.45;;;22.90;99.90;;;;;;4940541;29;20350;-68
2021/07/14 10:40:59;;;;;;;3.30;2.72;;;23.00;99.90;;;;;;4933823;29;20221;-68
2021/07/14 10:43:26;;;;;;;3.70;2.80;;;23.00;99.90;;;;;;4937669;29;20596;-67
2021/07/14 10:45:55;;;;;;;3.90;2.53;;;23.00;99.90;;;;;;4927084;28;20209;-66
2021/07/14 10:48:22;;;;;;;4.05;2.85;;;23.00;99.90;;;;;;4936930;28;20186;-68
2021/07/14 10:50:50;;;;;;;4.78;2.97;;;23.10;99.90;;;;;;4937918;28;20686;-66
2021/07/14 10:53:19;;;;;;;3.55;2.97;;;23.30;99.90;;;;;;4935144;29;20665;-66
2021/07/14 10:55:46;;;;;;;4.13;3.08;;;23.40;99.90;;;;;;4938401;29;20177;-66
2021/07/14 10:58:16;;;;;;;3.58;2.70;;;23.40;99.90;;;;;;4938983;28;20712;-68
2021/07/14 11:00:43;;;;;;;2.97;2.67;;;23.50;99.90;;;;;;4938455;28;20220;-67
2021/07/14 11:03:36;;;;;;;4.35;2.83;;;23.60;99.90;;;;;;4937758;28;20183;-68
2021/07/14 11:06:03;;;;;;;4.13;3.00;;;23.90;99.90;;;;;;4936453;29;20178;-68
2021/07/14 11:08:50;;;;;;;5.45;3.03;;;24.20;99.90;;;;;;4936655;29;21000;-69
2021/07/14 11:11:17;;;;;;;3.00;2.47;;;24.30;99.90;;;;;;4937144;29;20253;-66
2021/07/14 11:13:45;;;;;;;3.80;2.90;;;24.40;99.90;;;;;;4938363;29;20672;-67
2021/07/14 11:16:28;;;;;;;4.05;3.15;;;24.50;99.90;;;;;;4936054;29;20190;-69
2021/07/14 11:18:59;;;;;;;4.82;3.08;;;24.70;99.90;;;;;;4937162;28;20182;-66
2021/07/14 11:21:55;;;;;;;3.70;2.67;;;24.80;99.90;;;;;;4938840;29;20232;-67
2021/07/14 11:24:36;;;;;;;4.28;2.92;;;24.70;99.90;;;;;;4936230;29;20190;-68
2021/07/14 11:27:26;;;;;;;5.03;3.42;;;24.60;99.90;;;;;;4936178;29;20177;-67
2021/07/14 11:30:04;;;;;;;4.60;3.03;;;24.50;99.90;;;;;;4937922;28;20206;-68
2021/07/14 11:32:39;;;;;;;4.03;3.30;;;24.40;99.90;;;;;;4939981;28;20217;-67
2021/07/14 11:35:10;;;;;;;5.50;3.30;;;24.30;99.90;;;;;;4931861;28;20182;-69
2021/07/14 11:37:55;;;;;;;4.82;3.72;;;24.30;99.90;;;;;;4934596;29;20193;-68
2021/07/14 11:40:21;;;;;;;5.22;3.60;;;24.20;99.90;;;;;;4930060;29;20206;-68
2021/07/14 11:42:48;;;;;;;4.85;3.63;;;24.50;99.90;;;;;;4932511;28;20177;-69
2021/07/14 11:45:15;;;;;;;6.75;3.88;;;24.60;99.90;;;;;;4933419;29;20688;-69
2021/07/14 11:47:41;;;;;;;7.35;4.18;;;24.50;99.90;;;;;;4934938;29;20661;-69
2021/07/14 11:50:10;;;;;;;5.07;3.90;;;24.40;99.90;;;;;;4944021;28;20210;-66
2021/07/14 11:52:46;;;;;;;4.90;3.78;;;24.30;99.90;;;;;;4935662;29;20355;-67
2021/07/14 11:55:24;;;;;;;5.40;4.15;;;24.30;99.90;;;;;;4935309;29;20237;-67
2021/07/14 11:57:51;;;;;;;5.40;3.65;;;24.10;99.90;;;;;;4931023;29;20189;-68
2021/07/14 12:00:30;;;;;;;6.20;4.13;;;23.80;99.90;;;;;;4934882;28;20224;-67
2021/07/14 12:03:03;;;;;;;5.50;3.95;;;23.60;99.90;;;;;;4936285;29;20196;-68
2021/07/14 12:05:33;;;;;;;5.75;4.20;;;23.50;99.90;;;;;;4936021;29;20210;-66
2021/07/14 12:08:12;;;;;;;6.75;4.80;;;23.50;99.90;;;;;;4935177;29;20189;-68
2021/07/14 12:10:40;;;;;;;5.53;4.13;;;23.50;99.90;;;;;;4940638;29;20212;-66
2021/07/14 12:13:06;;;;;;;5.65;4.47;;;23.40;99.90;;;;;;4936701;29;20197;-68
2021/07/14 12:15:44;;;;;;;6.28;4.40;;;23.40;99.90;;;;;;4939251;29;20186;-70
2021/07/14 12:18:10;;;;;;;7.30;4.82;;;23.50;99.90;;;;;;4937507;29;20188;-68
2021/07/14 12:20:36;;;;;;;6.40;4.45;;;23.60;99.90;;;;;;4942216;29;20267;-66
2021/07/14 12:23:16;;;;;;;6.55;4.40;;;23.70;99.90;;;;;;4937073;28;20186;-69
2021/07/14 12:25:42;;;;;;;5.45;3.95;;;23.90;99.90;;;;;;4942746;29;20196;-66
2021/07/14 12:28:17;;;;;;;6.32;4.05;;;23.90;99.90;;;;;;4938512;29;20193;-66
2021/07/14 12:30:45;;;;;;;4.95;3.75;;;23.70;99.90;;;;;;4937803;28;20232;-68
2021/07/14 12:33:11;;;;;;;6.45;4.00;;;23.50;99.90;;;;;;4937006;29;20556;-68
2021/07/14 12:35:40;;;;;;;5.40;3.20;;;23.40;99.90;;;;;;4937081;28;20186;-68
2021/07/14 12:38:08;;;;;;;3.80;2.70;;;23.20;99.90;;;;;;4935773;29;20237;-67
2021/07/14 12:40:42;;;;;;;3.63;2.90;;;23.00;99.90;;;;;;4942316;28;20216;-66
2021/07/14 12:43:10;;;;;;;4.03;2.83;;;22.80;99.90;;;;;;4932808;28;20190;-68
2021/07/14 12:45:41;;;;;;;3.45;2.22;;;22.50;99.90;;;;;;4935987;28;20612;-66
2021/07/14 12:48:11;;;;;;;2.60;2.08;;;22.50;99.90;;;;;;4934831;29;20186;-66
2021/07/14 12:50:39;;;;;;;1.85;1.38;;;22.30;99.90;;;;;;4933218;28;20202;-64
2021/07/14 12:53:06;;;;;;;8.43;1.65;;;22.20;99.90;;;;;;4932047;29;20185;-67
2021/07/14 12:55:33;;;;;;;0.57;0.57;;;22.00;99.90;;;;;;4937910;28;20192;-67
2021/07/14 12:58:08;;;;;;;0.80;0.73;;;21.90;99.90;;;;;;4934574;29;20217;-67
2021/07/14 13:00:36;;;;;;;0.70;0.50;;;21.70;99.90;;;;;;4934224;29;20268;-66
2021/07/14 13:03:04;;;;;;;0.30;0.20;;;21.40;99.90;;;;;;4931067;29;20532;-69